sensor_id;sensor_type;location;lat;lon;timestamp;pressure;altitude;pressure_sealevel;temperature;humidity
78206;BME280;67480;48.920;12.880;2023-03-14T00:02:16;95495.75;;;8.52;54.31
78206;BME280;67480;48.920;12.880;2023-03-14T00:04:41;95486.25;;;8.55;54.83
78206;BME280;67480;48.920;12.880;2023-03-14T00:07:07;95485.34;;;8.63;54.53
78206;BME280;67480;48.920;12.880;2023-03-14T00:09:32;95479.31;;;8.66;54.81
78206;BME280;67480;48.920;12.880;2023-03-14T00:11:58;95475.63;;;8.71;54.92
78206;BME280;67480;48.920;12.880;2023-03-14T00:14:23;95473.94;;;8.78;55.27
78206;BME280;67480;48.920;12.880;2023-03-14T00:16:48;95464.06;;;8.82;55.49
78206;BME280;67480;48.920;12.880;2023-03-14T00:19:14;95453.34;;;8.82;55.46
78206;BME280;67480;48.920;12.880;2023-03-14T00:21:39;95444.63;;;8.85;55.94
78206;BME280;67480;48.920;12.880;2023-03-14T00:24:06;95439.72;;;8.87;55.99
78206;BME280;67480;48.920;12.880;2023-03-14T00:26:31;95438.34;;;8.94;56.26
78206;BME280;67480;48.920;12.880;2023-03-14T00:28:57;95425.38;;;8.96;56.48
78206;BME280;67480;48.920;12.880;2023-03-14T00:31:23;95418.47;;;8.82;56.47
78206;BME280;67480;48.920;12.880;2023-03-14T00:33:48;95417.13;;;8.88;55.99
78206;BME280;67480;48.920;12.880;2023-03-14T00:36:17;95421.22;;;8.58;56.07
78206;BME280;67480;48.920;12.880;2023-03-14T00:38:44;95422.53;;;8.64;56.21
78206;BME280;67480;48.920;12.880;2023-03-14T00:41:16;95420.97;;;8.63;56.85
78206;BME280;67480;48.920;12.880;2023-03-14T00:43:41;95426.56;;;8.58;56.21
78206;BME280;67480;48.920;12.880;2023-03-14T00:46:07;95421.53;;;8.56;56.65
78206;BME280;67480;48.920;12.880;2023-03-14T00:48:32;95425.81;;;8.57;56.55
78206;BME280;67480;48.920;12.880;2023-03-14T00:50:58;95436.75;;;8.40;57.10
78206;BME280;67480;48.920;12.880;2023-03-14T00:53:23;95457.09;;;8.41;56.98
78206;BME280;67480;48.920;12.880;2023-03-14T00:55:49;95456.66;;;8.26;57.43
78206;BME280;67480;48.920;12.880;2023-03-14T00:58:16;95470.59;;;8.32;57.38
78206;BME280;67480;48.920;12.880;2023-03-14T01:00:42;95474.41;;;8.31;57.28
78206;BME280;67480;48.920;12.880;2023-03-14T01:03:09;95486.03;;;8.23;57.60
78206;BME280;67480;48.920;12.880;2023-03-14T01:05:34;95489.56;;;7.90;58.74
78206;BME280;67480;48.920;12.880;2023-03-14T01:08:00;95476.31;;;7.72;58.36
78206;BME280;67480;48.920;12.880;2023-03-14T01:10:25;95475.22;;;7.73;58.70
78206;BME280;67480;48.920;12.880;2023-03-14T01:12:50;95469.56;;;7.87;58.38
78206;BME280;67480;48.920;12.880;2023-03-14T01:15:16;95472.47;;;7.82;58.09
78206;BME280;67480;48.920;12.880;2023-03-14T01:17:41;95495.47;;;7.95;57.36
78206;BME280;67480;48.920;12.880;2023-03-14T01:20:09;95527.06;;;7.90;57.72
78206;BME280;67480;48.920;12.880;2023-03-14T01:22:36;95518.78;;;7.62;58.18
78206;BME280;67480;48.920;12.880;2023-03-14T01:25:04;95501.72;;;7.87;57.36
78206;BME280;67480;48.920;12.880;2023-03-14T01:27:29;95488.22;;;7.84;56.96
78206;BME280;67480;48.920;12.880;2023-03-14T01:29:54;95485.56;;;7.75;56.45
78206;BME280;67480;48.920;12.880;2023-03-14T01:32:20;95477.72;;;7.91;56.58
78206;BME280;67480;48.920;12.880;2023-03-14T01:34:45;95458.22;;;8.03;57.29
78206;BME280;67480;48.920;12.880;2023-03-14T01:37:10;95460.91;;;8.03;57.32
78206;BME280;67480;48.920;12.880;2023-03-14T01:39:37;95457.75;;;8.01;57.50
78206;BME280;67480;48.920;12.880;2023-03-14T01:42:03;95451.97;;;8.11;57.68
78206;BME280;67480;48.920;12.880;2023-03-14T01:44:28;95461.56;;;8.12;57.39
78206;BME280;67480;48.920;12.880;2023-03-14T01:46:53;95475.63;;;8.09;57.42
78206;BME280;67480;48.920;12.880;2023-03-14T01:49:30;95476.63;;;7.92;57.64
78206;BME280;67480;48.920;12.880;2023-03-14T01:52:02;95478.06;;;8.14;57.20
78206;BME280;67480;48.920;12.880;2023-03-14T01:59:33;95473.97;;;8.29;57.77
78206;BME280;67480;48.920;12.880;2023-03-14T02:02:00;95468.06;;;8.11;57.51
78206;BME280;67480;48.920;12.880;2023-03-14T02:04:28;95474.06;;;8.20;57.63
78206;BME280;67480;48.920;12.880;2023-03-14T02:07:00;95482.69;;;8.26;57.12
78206;BME280;67480;48.920;12.880;2023-03-14T02:09:28;95483.81;;;8.37;56.74
78206;BME280;67480;48.920;12.880;2023-03-14T02:11:55;95497.41;;;8.32;57.00
78206;BME280;67480;48.920;12.880;2023-03-14T02:14:33;95498.22;;;8.32;57.64
78206;BME280;67480;48.920;12.880;2023-03-14T02:17:00;95501.75;;;8.37;57.70
78206;BME280;67480;48.920;12.880;2023-03-14T02:22:35;95512.84;;;8.47;57.81
78206;BME280;67480;48.920;12.880;2023-03-14T02:27:41;95523.34;;;8.53;56.41
78206;BME280;67480;48.920;12.880;2023-03-14T02:30:13;95529.81;;;8.51;57.65
78206;BME280;67480;48.920;12.880;2023-03-14T02:32:43;95521.66;;;8.11;58.75
78206;BME280;67480;48.920;12.880;2023-03-14T02:35:12;95540.19;;;8.28;58.38
78206;BME280;67480;48.920;12.880;2023-03-14T02:37:44;95542.53;;;8.30;59.12
78206;BME280;67480;48.920;12.880;2023-03-14T02:40:11;95536.91;;;8.10;60.71
78206;BME280;67480;48.920;12.880;2023-03-14T02:42:36;95533.56;;;8.01;62.10
78206;BME280;67480;48.920;12.880;2023-03-14T02:47:33;95534.50;;;8.30;62.56
78206;BME280;67480;48.920;12.880;2023-03-14T02:50:02;95533.81;;;8.33;62.42
78206;BME280;67480;48.920;12.880;2023-03-14T02:52:28;95524.91;;;8.29;63.01
78206;BME280;67480;48.920;12.880;2023-03-14T02:54:54;95525.44;;;8.35;63.37
78206;BME280;67480;48.920;12.880;2023-03-14T02:57:19;95518.84;;;8.32;63.55
78206;BME280;67480;48.920;12.880;2023-03-14T02:59:45;95528.00;;;8.19;63.95
78206;BME280;67480;48.920;12.880;2023-03-14T03:02:10;95521.06;;;8.05;64.48
78206;BME280;67480;48.920;12.880;2023-03-14T03:04:35;95517.50;;;8.13;64.67
78206;BME280;67480;48.920;12.880;2023-03-14T03:07:01;95509.91;;;8.16;64.66
78206;BME280;67480;48.920;12.880;2023-03-14T03:09:26;95519.84;;;8.03;65.12
78206;BME280;67480;48.920;12.880;2023-03-14T03:11:51;95507.97;;;7.91;65.33
78206;BME280;67480;48.920;12.880;2023-03-14T03:14:16;95501.06;;;7.90;66.14
78206;BME280;67480;48.920;12.880;2023-03-14T03:16:42;95500.72;;;8.04;65.93
78206;BME280;67480;48.920;12.880;2023-03-14T03:19:07;95495.03;;;8.06;65.81
78206;BME280;67480;48.920;12.880;2023-03-14T03:21:32;95490.25;;;8.11;65.96
78206;BME280;67480;48.920;12.880;2023-03-14T03:23:58;95496.06;;;8.01;67.03
78206;BME280;67480;48.920;12.880;2023-03-14T03:26:23;95490.47;;;8.06;67.77
78206;BME280;67480;48.920;12.880;2023-03-14T03:28:50;95488.59;;;8.19;67.04
78206;BME280;67480;48.920;12.880;2023-03-14T03:31:15;95489.47;;;8.23;67.71
78206;BME280;67480;48.920;12.880;2023-03-14T03:33:41;95478.31;;;8.33;67.39
78206;BME280;67480;48.920;12.880;2023-03-14T03:36:07;95475.31;;;8.23;67.80
78206;BME280;67480;48.920;12.880;2023-03-14T03:38:32;95461.34;;;8.29;68.87
78206;BME280;67480;48.920;12.880;2023-03-14T03:40:58;95442.47;;;8.38;67.66
78206;BME280;67480;48.920;12.880;2023-03-14T03:43:23;95415.78;;;8.29;68.55
78206;BME280;67480;48.920;12.880;2023-03-14T03:45:48;95414.22;;;8.28;69.50
78206;BME280;67480;48.920;12.880;2023-03-14T03:48:14;95416.66;;;8.33;69.14
78206;BME280;67480;48.920;12.880;2023-03-14T03:50:44;95411.50;;;8.53;67.91
78206;BME280;67480;48.920;12.880;2023-03-14T03:53:10;95420.97;;;8.63;67.99
78206;BME280;67480;48.920;12.880;2023-03-14T03:55:35;95426.34;;;8.63;67.73
78206;BME280;67480;48.920;12.880;2023-03-14T03:58:00;95435.72;;;8.69;67.70
78206;BME280;67480;48.920;12.880;2023-03-14T04:00:26;95424.66;;;8.71;67.61
78206;BME280;67480;48.920;12.880;2023-03-14T04:02:51;95426.69;;;8.61;67.75
78206;BME280;67480;48.920;12.880;2023-03-14T04:05:16;95429.16;;;8.66;68.11
78206;BME280;67480;48.920;12.880;2023-03-14T04:07:42;95439.88;;;8.66;67.97
78206;BME280;67480;48.920;12.880;2023-03-14T04:10:07;95441.78;;;8.54;68.36
78206;BME280;67480;48.920;12.880;2023-03-14T04:12:33;95432.28;;;8.56;68.47
78206;BME280;67480;48.920;12.880;2023-03-14T04:14:58;95427.25;;;8.55;68.60
78206;BME280;67480;48.920;12.880;2023-03-14T04:17:23;95435.41;;;8.33;69.45
78206;BME280;67480;48.920;12.880;2023-03-14T04:19:49;95434.22;;;8.31;69.75
78206;BME280;67480;48.920;12.880;2023-03-14T04:22:16;95440.00;;;8.33;69.65
78206;BME280;67480;48.920;12.880;2023-03-14T04:24:41;95434.53;;;8.42;69.39
78206;BME280;67480;48.920;12.880;2023-03-14T04:27:07;95426.84;;;8.40;69.96
78206;BME280;67480;48.920;12.880;2023-03-14T04:29:32;95435.00;;;8.44;69.20
78206;BME280;67480;48.920;12.880;2023-03-14T04:31:57;95423.69;;;8.38;69.27
78206;BME280;67480;48.920;12.880;2023-03-14T04:34:22;95417.22;;;8.39;69.09
78206;BME280;67480;48.920;12.880;2023-03-14T04:36:48;95421.59;;;8.31;69.39
78206;BME280;67480;48.920;12.880;2023-03-14T04:39:13;95424.59;;;8.30;70.10
78206;BME280;67480;48.920;12.880;2023-03-14T04:41:38;95408.28;;;8.35;69.44
78206;BME280;67480;48.920;12.880;2023-03-14T04:44:04;95412.53;;;8.36;69.12
78206;BME280;67480;48.920;12.880;2023-03-14T04:46:29;95412.09;;;8.34;68.86
78206;BME280;67480;48.920;12.880;2023-03-14T04:48:55;95412.78;;;8.31;68.78
78206;BME280;67480;48.920;12.880;2023-03-14T04:51:21;95409.75;;;8.32;68.74
78206;BME280;67480;48.920;12.880;2023-03-14T04:53:48;95412.78;;;8.31;68.74
78206;BME280;67480;48.920;12.880;2023-03-14T04:56:14;95418.13;;;8.19;69.25
78206;BME280;67480;48.920;12.880;2023-03-14T04:58:39;95414.22;;;8.28;69.12
78206;BME280;67480;48.920;12.880;2023-03-14T05:01:05;95415.22;;;8.24;69.65
78206;BME280;67480;48.920;12.880;2023-03-14T05:03:31;95412.44;;;8.32;69.67
78206;BME280;67480;48.920;12.880;2023-03-14T05:05:56;95407.31;;;8.27;68.96
78206;BME280;67480;48.920;12.880;2023-03-14T05:08:24;95413.44;;;8.16;69.80
78206;BME280;67480;48.920;12.880;2023-03-14T05:10:53;95412.44;;;8.20;69.29
78206;BME280;67480;48.920;12.880;2023-03-14T05:13:18;95408.75;;;8.12;69.41
78206;BME280;67480;48.920;12.880;2023-03-14T05:15:44;95415.13;;;8.20;69.22
78206;BME280;67480;48.920;12.880;2023-03-14T05:18:09;95409.41;;;8.22;69.07
78206;BME280;67480;48.920;12.880;2023-03-14T05:20:34;95407.97;;;8.24;69.15
78206;BME280;67480;48.920;12.880;2023-03-14T05:23:00;95402.03;;;8.19;69.68
78206;BME280;67480;48.920;12.880;2023-03-14T05:25:26;95401.06;;;8.11;69.43
78206;BME280;67480;48.920;12.880;2023-03-14T05:27:53;95396.69;;;8.19;69.24
78206;BME280;67480;48.920;12.880;2023-03-14T05:30:19;95398.38;;;8.23;69.05
78206;BME280;67480;48.920;12.880;2023-03-14T05:32:44;95402.72;;;8.28;68.94
78206;BME280;67480;48.920;12.880;2023-03-14T05:35:10;95405.06;;;8.29;69.06
78206;BME280;67480;48.920;12.880;2023-03-14T05:37:35;95399.13;;;8.36;69.21
78206;BME280;67480;48.920;12.880;2023-03-14T05:40:00;95394.69;;;8.40;69.03
78206;BME280;67480;48.920;12.880;2023-03-14T05:42:26;95394.88;;;8.35;69.22
78206;BME280;67480;48.920;12.880;2023-03-14T05:44:51;95403.72;;;8.36;69.20
78206;BME280;67480;48.920;12.880;2023-03-14T05:47:16;95399.47;;;8.47;68.72
78206;BME280;67480;48.920;12.880;2023-03-14T05:49:42;95402.16;;;8.47;68.93
78206;BME280;67480;48.920;12.880;2023-03-14T05:52:07;95410.06;;;8.56;68.70
78206;BME280;67480;48.920;12.880;2023-03-14T05:54:32;95406.69;;;8.59;68.54
78206;BME280;67480;48.920;12.880;2023-03-14T05:56:58;95404.00;;;8.59;68.67
78206;BME280;67480;48.920;12.880;2023-03-14T05:59:23;95402.59;;;8.37;68.93
78206;BME280;67480;48.920;12.880;2023-03-14T06:01:48;95399.47;;;8.35;69.21
78206;BME280;67480;48.920;12.880;2023-03-14T06:04:13;95394.69;;;8.40;69.04
78206;BME280;67480;48.920;12.880;2023-03-14T06:06:39;95392.97;;;8.48;69.09
78206;BME280;67480;48.920;12.880;2023-03-14T06:09:04;95394.09;;;8.47;68.82
78206;BME280;67480;48.920;12.880;2023-03-14T06:11:29;95388.75;;;8.47;68.61
78206;BME280;67480;48.920;12.880;2023-03-14T06:13:55;95383.03;;;8.48;68.87
78206;BME280;67480;48.920;12.880;2023-03-14T06:16:20;95383.25;;;8.43;68.87
78206;BME280;67480;48.920;12.880;2023-03-14T06:18:45;95382.25;;;8.48;68.72
78206;BME280;67480;48.920;12.880;2023-03-14T06:21:12;95384.28;;;8.39;68.81
78206;BME280;67480;48.920;12.880;2023-03-14T06:23:37;95381.56;;;8.51;68.53
78206;BME280;67480;48.920;12.880;2023-03-14T06:26:04;95381.56;;;8.51;69.29
78206;BME280;67480;48.920;12.880;2023-03-14T06:28:29;95380.31;;;8.61;69.13
78206;BME280;67480;48.920;12.880;2023-03-14T06:30:54;95372.03;;;8.66;68.83
78206;BME280;67480;48.920;12.880;2023-03-14T06:33:20;95380.97;;;8.70;68.45
78206;BME280;67480;48.920;12.880;2023-03-14T06:35:45;95380.81;;;8.79;68.16
78206;BME280;67480;48.920;12.880;2023-03-14T06:38:10;95377.47;;;8.82;68.24
78206;BME280;67480;48.920;12.880;2023-03-14T06:40:35;95379.81;;;8.83;68.21
78206;BME280;67480;48.920;12.880;2023-03-14T06:43:01;95385.06;;;8.80;68.21
78206;BME280;67480;48.920;12.880;2023-03-14T06:45:26;95381.66;;;8.67;68.10
78206;BME280;67480;48.920;12.880;2023-03-14T06:47:51;95374.53;;;8.87;67.92
78206;BME280;67480;48.920;12.880;2023-03-14T06:50:17;95365.16;;;8.81;68.29
78206;BME280;67480;48.920;12.880;2023-03-14T06:52:42;95377.78;;;8.93;67.96
78206;BME280;67480;48.920;12.880;2023-03-14T06:55:13;95388.16;;;8.94;67.91
78206;BME280;67480;48.920;12.880;2023-03-14T06:57:38;95384.00;;;8.97;67.83
78206;BME280;67480;48.920;12.880;2023-03-14T07:00:04;95384.31;;;9.08;67.28
78206;BME280;67480;48.920;12.880;2023-03-14T07:02:30;95387.47;;;9.26;66.57
78206;BME280;67480;48.920;12.880;2023-03-14T07:04:55;95380.72;;;9.32;66.03
78206;BME280;67480;48.920;12.880;2023-03-14T07:07:21;95382.00;;;9.38;66.54
78206;BME280;67480;48.920;12.880;2023-03-14T07:09:46;95384.50;;;9.43;66.58
78206;BME280;67480;48.920;12.880;2023-03-14T07:12:12;95380.66;;;9.44;66.26
78206;BME280;67480;48.920;12.880;2023-03-14T07:14:37;95380.31;;;9.46;66.79
78206;BME280;67480;48.920;12.880;2023-03-14T07:17:02;95381.72;;;9.55;66.60
78206;BME280;67480;48.920;12.880;2023-03-14T07:19:28;95380.34;;;9.62;66.33
78206;BME280;67480;48.920;12.880;2023-03-14T07:21:53;95366.41;;;9.72;65.85
78206;BME280;67480;48.920;12.880;2023-03-14T07:24:18;95380.72;;;9.76;65.97
78206;BME280;67480;48.920;12.880;2023-03-14T07:26:44;95374.44;;;9.88;66.14
78206;BME280;67480;48.920;12.880;2023-03-14T07:29:09;95376.00;;;10.05;65.56
78206;BME280;67480;48.920;12.880;2023-03-14T07:31:34;95377.03;;;10.16;64.84
78206;BME280;67480;48.920;12.880;2023-03-14T07:33:59;95377.69;;;10.29;64.30
78206;BME280;67480;48.920;12.880;2023-03-14T07:36:25;95382.28;;;10.44;63.96
78206;BME280;67480;48.920;12.880;2023-03-14T07:38:50;95382.66;;;10.62;63.23
78206;BME280;67480;48.920;12.880;2023-03-14T07:41:16;95381.50;;;10.63;62.72
78206;BME280;67480;48.920;12.880;2023-03-14T07:43:42;95383.78;;;10.81;61.90
78206;BME280;67480;48.920;12.880;2023-03-14T07:46:07;95385.16;;;10.91;61.23
78206;BME280;67480;48.920;12.880;2023-03-14T07:48:33;95387.50;;;10.92;61.10
78206;BME280;67480;48.920;12.880;2023-03-14T07:50:58;95402.03;;;11.07;59.83
78206;BME280;67480;48.920;12.880;2023-03-14T07:53:24;95404.59;;;11.00;60.97
78206;BME280;67480;48.920;12.880;2023-03-14T07:55:51;95398.97;;;10.89;60.73
78206;BME280;67480;48.920;12.880;2023-03-14T07:58:17;95409.94;;;10.45;61.08
78206;BME280;67480;48.920;12.880;2023-03-14T08:00:43;95406.75;;;10.94;60.91
78206;BME280;67480;48.920;12.880;2023-03-14T08:03:08;95404.94;;;10.98;60.11
78206;BME280;67480;48.920;12.880;2023-03-14T08:05:35;95411.44;;;10.97;59.64
78206;BME280;67480;48.920;12.880;2023-03-14T08:08:00;95425.34;;;10.64;60.14
78206;BME280;67480;48.920;12.880;2023-03-14T08:10:26;95425.88;;;10.53;59.97
78206;BME280;67480;48.920;12.880;2023-03-14T08:12:57;95419.13;;;10.44;61.50
78206;BME280;67480;48.920;12.880;2023-03-14T08:15:23;95427.25;;;10.12;62.00
78206;BME280;67480;48.920;12.880;2023-03-14T08:17:50;95418.50;;;10.15;62.49
78206;BME280;67480;48.920;12.880;2023-03-14T08:20:17;95425.59;;;10.07;62.50
78206;BME280;67480;48.920;12.880;2023-03-14T08:22:43;95427.50;;;10.07;61.57
78206;BME280;67480;48.920;12.880;2023-03-14T08:25:08;95420.47;;;9.86;62.67
78206;BME280;67480;48.920;12.880;2023-03-14T08:27:34;95418.13;;;10.01;61.67
78206;BME280;67480;48.920;12.880;2023-03-14T08:30:00;95410.69;;;10.10;61.80
78206;BME280;67480;48.920;12.880;2023-03-14T08:32:25;95407.72;;;10.31;61.59
78206;BME280;67480;48.920;12.880;2023-03-14T08:34:50;95417.22;;;10.44;60.42
78206;BME280;67480;48.920;12.880;2023-03-14T08:37:16;95415.38;;;10.48;60.29
78206;BME280;67480;48.920;12.880;2023-03-14T08:39:41;95408.47;;;10.47;60.42
78206;BME280;67480;48.920;12.880;2023-03-14T08:42:07;95406.16;;;10.65;60.60
78206;BME280;67480;48.920;12.880;2023-03-14T08:44:33;95404.59;;;10.64;59.87
78206;BME280;67480;48.920;12.880;2023-03-14T08:46:58;95405.53;;;10.72;59.47
78206;BME280;67480;48.920;12.880;2023-03-14T08:49:23;95408.22;;;10.72;59.28
78206;BME280;67480;48.920;12.880;2023-03-14T08:51:49;95403.53;;;10.85;58.30
78206;BME280;67480;48.920;12.880;2023-03-14T08:54:14;95400.69;;;10.81;58.60
78206;BME280;67480;48.920;12.880;2023-03-14T08:56:39;95393.69;;;10.57;59.16
78206;BME280;67480;48.920;12.880;2023-03-14T08:59:05;95391.56;;;10.66;59.57
78206;BME280;67480;48.920;12.880;2023-03-14T09:01:31;95384.50;;;10.78;59.47
78206;BME280;67480;48.920;12.880;2023-03-14T09:03:56;95398.34;;;10.41;58.69
78206;BME280;67480;48.920;12.880;2023-03-14T09:06:21;95385.94;;;10.91;58.15
78206;BME280;67480;48.920;12.880;2023-03-14T09:08:47;95390.53;;;10.91;58.39
78206;BME280;67480;48.920;12.880;2023-03-14T09:11:13;95381.91;;;11.01;58.22
78206;BME280;67480;48.920;12.880;2023-03-14T09:13:38;95397.84;;;11.10;58.10
78206;BME280;67480;48.920;12.880;2023-03-14T09:16:04;95389.13;;;11.16;57.77
78206;BME280;67480;48.920;12.880;2023-03-14T09:18:29;95387.00;;;11.25;57.52
78206;BME280;67480;48.920;12.880;2023-03-14T09:20:55;95383.50;;;11.25;58.57
78206;BME280;67480;48.920;12.880;2023-03-14T09:23:20;95389.59;;;11.22;58.70
78206;BME280;67480;48.920;12.880;2023-03-14T09:25:46;95393.09;;;10.83;57.55
78206;BME280;67480;48.920;12.880;2023-03-14T09:28:11;95399.75;;;11.09;57.62
78206;BME280;67480;48.920;12.880;2023-03-14T09:30:37;95400.03;;;11.23;57.46
78206;BME280;67480;48.920;12.880;2023-03-14T09:33:02;95393.59;;;11.09;57.22
78206;BME280;67480;48.920;12.880;2023-03-14T09:35:28;95395.44;;;11.04;58.66
78206;BME280;67480;48.920;12.880;2023-03-14T09:37:53;95394.09;;;11.34;57.28
78206;BME280;67480;48.920;12.880;2023-03-14T09:40:19;95389.00;;;11.52;56.20
78206;BME280;67480;48.920;12.880;2023-03-14T09:42:47;95385.72;;;11.62;54.97
78206;BME280;67480;48.920;12.880;2023-03-14T09:45:28;95379.81;;;11.76;55.85
78206;BME280;67480;48.920;12.880;2023-03-14T09:47:57;95384.69;;;11.93;54.59
78206;BME280;67480;48.920;12.880;2023-03-14T09:50:25;95391.53;;;11.87;53.85
78206;BME280;67480;48.920;12.880;2023-03-14T09:52:59;95387.50;;;12.24;53.10
78206;BME280;67480;48.920;12.880;2023-03-14T09:55:27;95383.94;;;12.73;53.32
78206;BME280;67480;48.920;12.880;2023-03-14T09:57:57;95385.22;;;12.83;52.25
78206;BME280;67480;48.920;12.880;2023-03-14T10:00:27;95397.88;;;12.48;51.65
78206;BME280;67480;48.920;12.880;2023-03-14T10:03:14;95390.56;;;12.22;51.91
78206;BME280;67480;48.920;12.880;2023-03-14T10:05:45;95398.31;;;12.54;52.38
78206;BME280;67480;48.920;12.880;2023-03-14T10:08:12;95391.81;;;12.05;52.89
78206;BME280;67480;48.920;12.880;2023-03-14T10:10:37;95386.13;;;11.64;53.80
78206;BME280;67480;48.920;12.880;2023-03-14T10:13:18;95398.00;;;11.83;54.08
78206;BME280;67480;48.920;12.880;2023-03-14T10:15:55;95385.84;;;12.15;53.45
78206;BME280;67480;48.920;12.880;2023-03-14T10:18:22;95383.09;;;12.12;53.03
78206;BME280;67480;48.920;12.880;2023-03-14T10:20:50;95373.66;;;12.25;54.10
78206;BME280;67480;48.920;12.880;2023-03-14T10:23:28;95383.00;;;12.31;52.90
78206;BME280;67480;48.920;12.880;2023-03-14T10:28:31;95381.47;;;11.84;53.26
78206;BME280;67480;48.920;12.880;2023-03-14T10:30:58;95368.28;;;11.56;54.24
78206;BME280;67480;48.920;12.880;2023-03-14T10:33:26;95363.25;;;12.01;54.00
78206;BME280;67480;48.920;12.880;2023-03-14T10:35:58;95366.03;;;12.31;53.31
78206;BME280;67480;48.920;12.880;2023-03-14T10:38:30;95363.13;;;12.43;52.42
78206;BME280;67480;48.920;12.880;2023-03-14T10:40:56;95358.84;;;12.69;51.11
78206;BME280;67480;48.920;12.880;2023-03-14T10:43:26;95357.69;;;13.04;49.91
78206;BME280;67480;48.920;12.880;2023-03-14T10:45:58;95357.34;;;13.05;50.30
78206;BME280;67480;48.920;12.880;2023-03-14T10:54:00;95356.63;;;12.21;51.05
78206;BME280;67480;48.920;12.880;2023-03-14T10:56:26;95358.75;;;11.85;50.66
78206;BME280;67480;48.920;12.880;2023-03-14T10:58:54;95373.69;;;11.79;52.32
78206;BME280;67480;48.920;12.880;2023-03-14T11:01:57;95363.16;;;11.70;51.24
78206;BME280;67480;48.920;12.880;2023-03-14T11:07:39;95346.47;;;12.68;49.53
78206;BME280;67480;48.920;12.880;2023-03-14T11:10:29;95338.53;;;12.48;48.30
78206;BME280;67480;48.920;12.880;2023-03-14T11:13:16;95344.22;;;12.74;47.98
78206;BME280;67480;48.920;12.880;2023-03-14T11:18:57;95352.09;;;12.02;49.56
78206;BME280;67480;48.920;12.880;2023-03-14T11:21:40;95356.53;;;11.68;50.40
78206;BME280;67480;48.920;12.880;2023-03-14T11:24:37;95347.44;;;11.53;51.75
78206;BME280;67480;48.920;12.880;2023-03-14T11:30:05;95340.66;;;11.16;51.64
78206;BME280;67480;48.920;12.880;2023-03-14T11:32:45;95340.16;;;11.11;51.53
78206;BME280;67480;48.920;12.880;2023-03-14T11:35:28;95333.44;;;11.01;51.50
78206;BME280;67480;48.920;12.880;2023-03-14T11:40:54;95339.44;;;11.14;51.46
78206;BME280;67480;48.920;12.880;2023-03-14T11:43:28;95331.66;;;11.09;51.58
78206;BME280;67480;48.920;12.880;2023-03-14T11:46:03;95331.69;;;10.89;51.95
78206;BME280;67480;48.920;12.880;2023-03-14T11:49:01;95330.69;;;10.78;52.28
78206;BME280;67480;48.920;12.880;2023-03-14T11:51:50;95325.75;;;10.80;52.01
78206;BME280;67480;48.920;12.880;2023-03-14T11:54:35;95321.22;;;10.84;52.52
78206;BME280;67480;48.920;12.880;2023-03-14T11:57:05;95314.47;;;10.94;52.79
78206;BME280;67480;48.920;12.880;2023-03-14T12:10:45;95310.03;;;11.01;52.15
78206;BME280;67480;48.920;12.880;2023-03-14T12:13:13;95306.63;;;11.04;52.02
78206;BME280;67480;48.920;12.880;2023-03-14T12:15:54;95301.06;;;11.40;51.52
78206;BME280;67480;48.920;12.880;2023-03-14T12:18:31;95301.53;;;11.22;51.55
78206;BME280;67480;48.920;12.880;2023-03-14T12:21:00;95295.00;;;11.00;51.96
78206;BME280;67480;48.920;12.880;2023-03-14T12:23:26;95298.44;;;11.01;53.01
78206;BME280;67480;48.920;12.880;2023-03-14T12:28:36;95296.28;;;10.67;52.90
78206;BME280;67480;48.920;12.880;2023-03-14T12:39:21;95286.09;;;10.57;53.68
78206;BME280;67480;48.920;12.880;2023-03-14T12:42:02;95282.47;;;10.49;53.30
78206;BME280;67480;48.920;12.880;2023-03-14T12:46:58;95286.81;;;10.54;53.43
78206;BME280;67480;48.920;12.880;2023-03-14T12:49:31;95283.94;;;10.47;53.09
78206;BME280;67480;48.920;12.880;2023-03-14T12:52:01;95274.75;;;10.48;53.12
78206;BME280;67480;48.920;12.880;2023-03-14T12:59:58;95270.66;;;10.93;52.44
78206;BME280;67480;48.920;12.880;2023-03-14T13:02:38;95273.16;;;11.05;51.98
78206;BME280;67480;48.920;12.880;2023-03-14T13:05:12;95270.84;;;11.27;51.11
78206;BME280;67480;48.920;12.880;2023-03-14T13:16:01;95278.13;;;11.50;50.35
78206;BME280;67480;48.920;12.880;2023-03-14T13:18:46;95281.38;;;11.36;50.59
78206;BME280;67480;48.920;12.880;2023-03-14T13:21:18;95275.59;;;11.34;50.64
78206;BME280;67480;48.920;12.880;2023-03-14T13:23:59;95268.16;;;11.50;50.46
78206;BME280;67480;48.920;12.880;2023-03-14T13:26:42;95273.53;;;11.77;49.66
78206;BME280;67480;48.920;12.880;2023-03-14T13:29:22;95261.13;;;12.22;49.38
78206;BME280;67480;48.920;12.880;2023-03-14T13:31:53;95264.06;;;12.44;49.80
78206;BME280;67480;48.920;12.880;2023-03-14T13:34:20;95265.91;;;12.36;48.81
78206;BME280;67480;48.920;12.880;2023-03-14T13:36:46;95261.63;;;12.31;49.77
78206;BME280;67480;48.920;12.880;2023-03-14T13:39:18;95266.56;;;11.99;49.89
78206;BME280;67480;48.920;12.880;2023-03-14T13:41:45;95268.63;;;11.83;50.22
78206;BME280;67480;48.920;12.880;2023-03-14T13:44:17;95263.44;;;11.70;50.35
78206;BME280;67480;48.920;12.880;2023-03-14T13:46:46;95266.28;;;11.31;51.50
78206;BME280;67480;48.920;12.880;2023-03-14T13:49:24;95267.41;;;11.30;50.61
78206;BME280;67480;48.920;12.880;2023-03-14T13:51:50;95263.50;;;11.24;51.18
78206;BME280;67480;48.920;12.880;2023-03-14T13:54:18;95266.91;;;10.98;51.86
78206;BME280;67480;48.920;12.880;2023-03-14T13:56:44;95273.72;;;11.15;52.25
78206;BME280;67480;48.920;12.880;2023-03-14T13:59:27;95271.47;;;10.97;52.75
78206;BME280;67480;48.920;12.880;2023-03-14T14:01:53;95277.41;;;10.83;53.71
78206;BME280;67480;48.920;12.880;2023-03-14T14:04:20;95285.63;;;10.75;53.81
78206;BME280;67480;48.920;12.880;2023-03-14T14:06:58;95283.06;;;10.59;55.67
78206;BME280;67480;48.920;12.880;2023-03-14T14:09:29;95282.91;;;10.51;56.25
78206;BME280;67480;48.920;12.880;2023-03-14T14:12:02;95272.34;;;10.62;57.65